Pine Galaxy — C6TT5 — position and weather

sailwx.info

Track history (hours):
 
Tides and Currents Weather Stations Pressure Air Temp Water Temp Dewpoint Dewpoint Depression Visibility Wind Speed Wind Dir Waves Ship Positions

Pine Galaxy

Last reported at 2015-Jul-04 01:12 UTC. Time now 2015-Aug-02 12:19 UTC.
Position N 30°46' E 123°18'.
Warning: this ship's position is 29 days out of date.

Length 147 m; draft 5.5 m.

Type: Ship (hazmat cat B). MMSI: 311772000.

Date/timePositionNaut miles runAvg speedWind from/ knotsBaromVisibWave heightAir tempDewpointWater temp
2015-Jul-04 01:12N 30°46' E 123°18'1412.5
2015-Jul-04 00:03N 30°53' E 123°04'714.1
2015-Jul-03 23:33N 30°54' E 122°55'1414.3
2015-Jul-03 22:33N 30°57' E 122°39'1515.3
2015-Jul-03 21:34N 31°01' E 122°22'1312.9
2015-Jul-03 20:33N 31°03' E 122°07'1313.3
2015-Jul-03 19:33N 31°09' E 121°53'1312.8
2015-Jul-03 18:33N 31°18' E 121°43'1010.1
2015-Jul-03 17:33N 31°24' E 121°33'7 6.9
2015-Jul-03 16:33N 31°28' E 121°27'1110.9
2015-Jul-03 15:33N 31°36' E 121°17'1413.9
2015-Jul-03 14:33N 31°45' E 121°05'1312.9
2015-Jul-03 13:33N 31°53' E 120°53'1211.8
2015-Jul-03 12:33N 32°00' E 120°42'8 7.9
2015-Jul-03 11:31N 32°02' E 120°33'0 0.0
2015-Jul-03 10:28N 32°02' E 120°33'0 0.0
2015-Jul-03 09:31N 32°02' E 120°33'0 0.0
2015-Jul-03 08:31N 32°02' E 120°33'0 0.0
2015-Jul-03 07:31N 32°01' E 120°33'0 0.0
2015-Jul-03 06:31N 32°02' E 120°33'5 5.1
2015-Jul-03 05:33N 32°02' E 120°27'2 0.1
2015-Jul-02 15:27N 31°60' E 120°27'2 0.3
2015-Jul-02 09:12N 31°58' E 120°27'0 0.0
2015-Jul-02 06:32N 31°58' E 120°27'0 0.0
2015-Jul-01 17:24N 31°58' E 120°27'0 0.0
2015-Jul-01 15:18N 31°58' E 120°27'3 4.0
2015-Jul-01 14:33N 32°01' E 120°27'5 5.5
2015-Jul-01 13:34N 32°01' E 120°33'0 0.0
2015-Jul-01 12:33N 32°01' E 120°33'0 0.0
2015-Jul-01 11:30N 32°01' E 120°33'0 0.0
2015-Jul-01 10:18N 32°01' E 120°33'0 0.0
2015-Jul-01 09:33N 32°01' E 120°33'0 0.0
2015-Jul-01 08:33N 32°01' E 120°33'0 0.0
2015-Jul-01 07:33N 32°01' E 120°33'4 4.3
2015-Jul-01 06:33N 32°02' E 120°28'8 8.2
2015-Jul-01 05:32N 31°58' E 120°20'1111.2
2015-Jul-01 04:34N 31°56' E 120°07'0 0.0
2015-Jun-30 18:06N 31°56' E 120°07'0 0.0
2015-Jun-30 15:30N 31°56' E 120°07'0 0.0
2015-Jun-30 13:13N 31°56' E 120°07'0 0.0
2015-Jun-30 06:24N 31°56' E 120°07'0 0.0
2015-Jun-29 23:24N 31°56' E 120°07'0 0.0
2015-Jun-29 22:06N 31°56' E 120°07'0 0.0
2015-Jun-29 20:18N 31°56' E 120°07'0 0.0
2015-Jun-29 19:30N 31°56' E 120°07'0 0.0
2015-Jun-29 16:24N 31°56' E 120°07'1 1.6
2015-Jun-29 15:30N 31°56' E 120°08'8 8.1
2015-Jun-29 14:33N 31°57' E 120°17'8 8.1
2015-Jun-29 13:33N 31°59' E 120°27'5 5.3
2015-Jun-29 12:33N 32°01' E 120°32'8 8.0
2015-Jun-29 11:32N 32°00' E 120°42'6 6.6
2015-Jun-29 10:33N 31°60' E 120°49'9 8.9
2015-Jun-29 09:33N 31°52' E 120°54'8 8.2
2015-Jun-29 08:33N 31°47' E 121°01'9 9.4
2015-Jun-29 07:33N 31°41' E 121°10'1010.1
2015-Jun-29 06:33N 31°34' E 121°19'1010.5
2015-Jun-29 05:33N 31°28' E 121°28'8 7.9
2015-Jun-29 04:33N 31°23' E 121°36'1010.1
2015-Jun-29 03:33N 31°18' E 121°46'10 9.8
2015-Jun-29 02:33N 31°15' E 121°57'  
Track history (hours):
 
Tides and Currents Weather Stations Pressure Air Temp Water Temp Dewpoint Dewpoint Depression Visibility Wind Speed Wind Dir Waves Ship Positions

Pine Galaxy

Last reported at 2015-Jul-04 01:12 UTC. Time now 2015-Aug-02 12:19 UTC.
Position N 30°46' E 123°18'.
Warning: this ship's position is 29 days out of date.

Length 147 m; draft 5.5 m.

Type: Ship (hazmat cat B). MMSI: 311772000.

Date/timePositionNaut miles runAvg speedWind from/ knotsBaromVisibWave heightAir tempDewpointWater temp
2015-Jul-04 01:12N 30°46' E 123°18'1412.5
2015-Jul-04 00:03N 30°53' E 123°04'714.1
2015-Jul-03 23:33N 30°54' E 122°55'1414.3
2015-Jul-03 22:33N 30°57' E 122°39'1515.3
2015-Jul-03 21:34N 31°01' E 122°22'1312.9
2015-Jul-03 20:33N 31°03' E 122°07'1313.3
2015-Jul-03 19:33N 31°09' E 121°53'1312.8
2015-Jul-03 18:33N 31°18' E 121°43'1010.1
2015-Jul-03 17:33N 31°24' E 121°33'7 6.9
2015-Jul-03 16:33N 31°28' E 121°27'1110.9
2015-Jul-03 15:33N 31°36' E 121°17'1413.9
2015-Jul-03 14:33N 31°45' E 121°05'1312.9
2015-Jul-03 13:33N 31°53' E 120°53'1211.8
2015-Jul-03 12:33N 32°00' E 120°42'8 7.9
2015-Jul-03 11:31N 32°02' E 120°33'0 0.0
2015-Jul-03 10:28N 32°02' E 120°33'0 0.0
2015-Jul-03 09:31N 32°02' E 120°33'0 0.0
2015-Jul-03 08:31N 32°02' E 120°33'0 0.0
2015-Jul-03 07:31N 32°01' E 120°33'0 0.0
2015-Jul-03 06:31N 32°02' E 120°33'5 5.1
2015-Jul-03 05:33N 32°02' E 120°27'2 0.1
2015-Jul-02 15:27N 31°60' E 120°27'2 0.3
2015-Jul-02 09:12N 31°58' E 120°27'0 0.0
2015-Jul-02 06:32N 31°58' E 120°27'0 0.0
2015-Jul-01 17:24N 31°58' E 120°27'0 0.0
2015-Jul-01 15:18N 31°58' E 120°27'3 4.0
2015-Jul-01 14:33N 32°01' E 120°27'5 5.5
2015-Jul-01 13:34N 32°01' E 120°33'0 0.0
2015-Jul-01 12:33N 32°01' E 120°33'0 0.0
2015-Jul-01 11:30N 32°01' E 120°33'0 0.0
2015-Jul-01 10:18N 32°01' E 120°33'0 0.0
2015-Jul-01 09:33N 32°01' E 120°33'0 0.0
2015-Jul-01 08:33N 32°01' E 120°33'0 0.0
2015-Jul-01 07:33N 32°01' E 120°33'4 4.3
2015-Jul-01 06:33N 32°02' E 120°28'8 8.2
2015-Jul-01 05:32N 31°58' E 120°20'1111.2
2015-Jul-01 04:34N 31°56' E 120°07'0 0.0
2015-Jun-30 18:06N 31°56' E 120°07'0 0.0
2015-Jun-30 15:30N 31°56' E 120°07'0 0.0
2015-Jun-30 13:13N 31°56' E 120°07'0 0.0
2015-Jun-30 06:24N 31°56' E 120°07'0 0.0
2015-Jun-29 23:24N 31°56' E 120°07'0 0.0
2015-Jun-29 22:06N 31°56' E 120°07'0 0.0
2015-Jun-29 20:18N 31°56' E 120°07'0 0.0
2015-Jun-29 19:30N 31°56' E 120°07'0 0.0
2015-Jun-29 16:24N 31°56' E 120°07'1 1.6
2015-Jun-29 15:30N 31°56' E 120°08'8 8.1
2015-Jun-29 14:33N 31°57' E 120°17'8 8.1
2015-Jun-29 13:33N 31°59' E 120°27'5 5.3
2015-Jun-29 12:33N 32°01' E 120°32'8 8.0
2015-Jun-29 11:32N 32°00' E 120°42'6 6.6
2015-Jun-29 10:33N 31°60' E 120°49'9 8.9
2015-Jun-29 09:33N 31°52' E 120°54'8 8.2
2015-Jun-29 08:33N 31°47' E 121°01'9 9.4
2015-Jun-29 07:33N 31°41' E 121°10'1010.1
2015-Jun-29 06:33N 31°34' E 121°19'1010.5
2015-Jun-29 05:33N 31°28' E 121°28'8 7.9
2015-Jun-29 04:33N 31°23' E 121°36'1010.1
2015-Jun-29 03:33N 31°18' E 121°46'10 9.8
2015-Jun-29 02:33N 31°15' E 121°57'  

Dump ship's entire track history